PWSweather.com
Personal Weather Stations
Station Observations
NEWFAL01
Newton Falls, OH 44444

Newton Falls, OH 44444

Lat: 41.19902, Lon: -80.97668

Elevation: 920

Station Type: Vantage Pro 2

http://www.mvweathercenter.com

High Low Average
Temperature 84.5°F29.2°F 63.1°F17.3°F 71.6°F22.0°F
Dew Point 67.9°F19.9°F 59.8°F15.4°F 64.0°F17.8°F
Winds Calm NECalm NE Calm Calm Calm Calm
Wind Gusts -- -- --
Humidity 91% 54% 78%
Pressure 30.01 in1016.30 in 29.92 in1013.20 in -
Precipitation 0.00 in0.00 in - -
Hour Temp Dew Point Humidity Winds Wind Gusts Pressure Precip Precip Rate Daily Precip Total
12:00 AM 66.0°F18.9°C 62.0°F16.7°C 87% Calm Calm -- 29.92 in1013.2 mb - 0.00 in0.0 mm 0.00 in0.0 mm
12:10 AM 65.7°F18.7°C 61.7°F16.5°C 87% Calm Calm -- 29.92 in1013.2 mb - 0.00 in0.0 mm 0.00 in0.0 mm
12:15 AM 65.6°F18.7°C 61.6°F16.4°C 87% Calm Calm -- 29.92 in1013.2 mb - 0.00 in0.0 mm 0.00 in0.0 mm
12:20 AM 65.6°F18.7°C 61.6°F16.4°C 87% Calm Calm -- 29.92 in1013.2 mb - 0.00 in0.0 mm 0.00 in0.0 mm
12:25 AM 65.6°F18.7°C 61.9°F16.6°C 88% Calm Calm -- 29.92 in1013.2 mb - 0.00 in0.0 mm 0.00 in0.0 mm
12:30 AM 65.6°F18.7°C 61.9°F16.6°C 88% Calm Calm -- 29.92 in1013.2 mb - 0.00 in0.0 mm 0.00 in0.0 mm
12:35 AM 65.6°F18.7°C 61.9°F16.6°C 88% Calm Calm -- 29.92 in1013.2 mb - 0.00 in0.0 mm 0.00 in0.0 mm
12:40 AM 65.4°F18.6°C 61.8°F16.6°C 88% Calm Calm -- 29.92 in1013.2 mb - 0.00 in0.0 mm 0.00 in0.0 mm
12:45 AM 65.4°F18.6°C 61.8°F16.6°C 88% Calm Calm -- 29.92 in1013.2 mb - 0.00 in0.0 mm 0.00 in0.0 mm
12:50 AM 65.3°F18.5°C 61.7°F16.5°C 88% Calm Calm -- 29.92 in1013.2 mb - 0.00 in0.0 mm 0.00 in0.0 mm
12:55 AM 65.3°F18.5°C 61.7°F16.5°C 88% Calm Calm -- 29.92 in1013.2 mb - 0.00 in0.0 mm 0.00 in0.0 mm
01:00 AM 65.3°F18.5°C 61.7°F16.5°C 88% Calm Calm -- 29.92 in1013.2 mb - 0.00 in0.0 mm 0.00 in0.0 mm
01:10 AM 65.4°F18.6°C 61.8°F16.6°C 88% Calm Calm -- 29.92 in1013.2 mb - 0.00 in0.0 mm 0.00 in0.0 mm
01:15 AM 65.3°F18.5°C 61.7°F16.5°C 88% Calm Calm -- 29.92 in1013.2 mb - 0.00 in0.0 mm 0.00 in0.0 mm
01:20 AM 65.3°F18.5°C 61.7°F16.5°C 88% Calm Calm -- 29.92 in1013.2 mb - 0.00 in0.0 mm 0.00 in0.0 mm
01:25 AM 65.2°F18.4°C 61.6°F16.4°C 88% Calm Calm -- 29.92 in1013.2 mb - 0.00 in0.0 mm 0.00 in0.0 mm
01:30 AM 65.2°F18.4°C 61.6°F16.4°C 88% Calm Calm -- 29.92 in1013.2 mb - 0.00 in0.0 mm 0.00 in0.0 mm
01:35 AM 65.1°F18.4°C 61.5°F16.4°C 88% Calm Calm -- 29.92 in1013.2 mb - 0.00 in0.0 mm 0.00 in0.0 mm
01:40 AM 65.1°F18.4°C 61.5°F16.4°C 88% Calm Calm -- 29.92 in1013.2 mb - 0.00 in0.0 mm 0.00 in0.0 mm
01:45 AM 65.0°F18.3°C 61.4°F16.3°C 88% Calm Calm -- 29.92 in1013.2 mb - 0.00 in0.0 mm 0.00 in0.0 mm
01:50 AM 65.0°F18.3°C 61.4°F16.3°C 88% Calm Calm -- 29.92 in1013.2 mb - 0.00 in0.0 mm 0.00 in0.0 mm
01:55 AM 65.0°F18.3°C 61.4°F16.3°C 88% Calm Calm -- 29.92 in1013.2 mb - 0.00 in0.0 mm 0.00 in0.0 mm
02:00 AM 65.0°F18.3°C 61.7°F16.5°C 89% Calm Calm -- 29.92 in1013.2 mb - 0.00 in0.0 mm 0.00 in0.0 mm
02:10 AM 64.9°F18.3°C 61.3°F16.3°C 88% Calm Calm -- 29.92 in1013.2 mb - 0.00 in0.0 mm 0.00 in0.0 mm
02:15 AM 64.9°F18.3°C 61.3°F16.3°C 88% Calm Calm -- 29.92 in1013.2 mb - 0.00 in0.0 mm 0.00 in0.0 mm
02:20 AM 64.8°F18.2°C 61.2°F16.2°C 88% Calm Calm -- 29.92 in1013.2 mb - 0.00 in0.0 mm 0.00 in0.0 mm
02:25 AM 64.8°F18.2°C 61.2°F16.2°C 88% Calm Calm -- 29.92 in1013.2 mb - 0.00 in0.0 mm 0.00 in0.0 mm
02:30 AM 64.7°F18.2°C 61.4°F16.3°C 89% Calm Calm -- 29.92 in1013.2 mb - 0.00 in0.0 mm 0.00 in0.0 mm
02:35 AM 64.7°F18.2°C 61.4°F16.3°C 89% Calm Calm -- 29.92 in1013.2 mb - 0.00 in0.0 mm 0.00 in0.0 mm
02:40 AM 64.7°F18.2°C 61.4°F16.3°C 89% Calm Calm -- 29.92 in1013.2 mb - 0.00 in0.0 mm 0.00 in0.0 mm
02:45 AM 64.8°F18.2°C 61.5°F16.4°C 89% Calm Calm -- 29.92 in1013.2 mb - 0.00 in0.0 mm 0.00 in0.0 mm
02:50 AM 64.8°F18.2°C 61.5°F16.4°C 89% Calm Calm -- 29.92 in1013.2 mb - 0.00 in0.0 mm 0.00 in0.0 mm
02:55 AM 64.8°F18.2°C 61.5°F16.4°C 89% Calm Calm -- 29.92 in1013.2 mb - 0.00 in0.0 mm 0.00 in0.0 mm
03:00 AM 64.8°F18.2°C 61.5°F16.4°C 89% Calm Calm -- 29.92 in1013.2 mb - 0.00 in0.0 mm 0.00 in0.0 mm
03:10 AM 64.9°F18.3°C 61.6°F16.4°C 89% Calm Calm -- 29.92 in1013.2 mb - 0.00 in0.0 mm 0.00 in0.0 mm
03:15 AM 64.9°F18.3°C 61.6°F16.4°C 89% Calm Calm -- 29.92 in1013.2 mb - 0.00 in0.0 mm 0.00 in0.0 mm
03:20 AM 64.9°F18.3°C 61.6°F16.4°C 89% Calm Calm -- 29.92 in1013.2 mb - 0.00 in0.0 mm 0.00 in0.0 mm
03:25 AM 65.0°F18.3°C 61.7°F16.5°C 89% Calm Calm -- 29.92 in1013.2 mb - 0.00 in0.0 mm 0.00 in0.0 mm
03:30 AM 65.0°F18.3°C 61.7°F16.5°C 89% Calm Calm -- 29.92 in1013.2 mb - 0.00 in0.0 mm 0.00 in0.0 mm
03:35 AM 65.0°F18.3°C 61.7°F16.5°C 89% Calm Calm -- 29.92 in1013.2 mb - 0.00 in0.0 mm 0.00 in0.0 mm
03:40 AM 65.0°F18.3°C 61.7°F16.5°C 89% Calm Calm -- 29.92 in1013.2 mb - 0.00 in0.0 mm 0.00 in0.0 mm
03:45 AM 65.0°F18.3°C 61.7°F16.5°C 89% Calm Calm -- 29.92 in1013.2 mb - 0.00 in0.0 mm 0.00 in0.0 mm
03:50 AM 65.0°F18.3°C 61.7°F16.5°C 89% Calm Calm -- 29.92 in1013.2 mb - 0.00 in0.0 mm 0.00 in0.0 mm
03:55 AM 64.9°F18.3°C 61.6°F16.4°C 89% Calm Calm -- 29.92 in1013.2 mb - 0.00 in0.0 mm 0.00 in0.0 mm
04:00 AM 64.9°F18.3°C 61.6°F16.4°C 89% Calm Calm -- 29.93 in1013.5 mb - 0.00 in0.0 mm 0.00 in0.0 mm
04:10 AM 64.8°F18.2°C 61.5°F16.4°C 89% Calm Calm -- 29.93 in1013.5 mb - 0.00 in0.0 mm 0.00 in0.0 mm
04:15 AM 64.8°F18.2°C 61.5°F16.4°C 89% Calm Calm -- 29.93 in1013.5 mb - 0.00 in0.0 mm 0.00 in0.0 mm
04:20 AM 64.8°F18.2°C 61.5°F16.4°C 89% Calm Calm -- 29.93 in1013.5 mb - 0.00 in0.0 mm 0.00 in0.0 mm
04:25 AM 64.8°F18.2°C 61.5°F16.4°C 89% Calm Calm -- 29.93 in1013.5 mb - 0.00 in0.0 mm 0.00 in0.0 mm
04:30 AM 64.8°F18.2°C 61.5°F16.4°C 89% Calm Calm -- 29.93 in1013.5 mb - 0.00 in0.0 mm 0.00 in0.0 mm
04:35 AM 64.8°F18.2°C 61.5°F16.4°C 89% Calm Calm -- 29.93 in1013.5 mb - 0.00 in0.0 mm 0.00 in0.0 mm
04:40 AM 64.7°F18.2°C 61.4°F16.3°C 89% Calm Calm -- 29.93 in1013.5 mb - 0.00 in0.0 mm 0.00 in0.0 mm
04:45 AM 64.8°F18.2°C 61.5°F16.4°C 89% Calm Calm -- 29.93 in1013.5 mb - 0.00 in0.0 mm 0.00 in0.0 mm
04:50 AM 64.8°F18.2°C 61.5°F16.4°C 89% Calm Calm -- 29.93 in1013.5 mb - 0.00 in0.0 mm 0.00 in0.0 mm
04:55 AM 64.8°F18.2°C 61.5°F16.4°C 89% Calm Calm -- 29.93 in1013.5 mb - 0.00 in0.0 mm 0.00 in0.0 mm
05:00 AM 64.8°F18.2°C 61.5°F16.4°C 89% Calm Calm -- 29.93 in1013.5 mb - 0.00 in0.0 mm 0.00 in0.0 mm
05:10 AM 64.7°F18.2°C 61.4°F16.3°C 89% Calm Calm -- 29.94 in1013.9 mb - 0.00 in0.0 mm 0.00 in0.0 mm
05:15 AM 64.6°F18.1°C 61.3°F16.3°C 89% Calm Calm -- 29.93 in1013.5 mb - 0.00 in0.0 mm 0.00 in0.0 mm
05:20 AM 64.5°F18.1°C 61.2°F16.2°C 89% Calm Calm -- 29.93 in1013.5 mb - 0.00 in0.0 mm 0.00 in0.0 mm
05:25 AM 64.4°F18.0°C 61.1°F16.2°C 89% Calm Calm -- 29.93 in1013.5 mb - 0.00 in0.0 mm 0.00 in0.0 mm
05:30 AM 64.4°F18.0°C 61.1°F16.2°C 89% Calm Calm -- 29.94 in1013.9 mb - 0.00 in0.0 mm 0.00 in0.0 mm
05:35 AM 64.3°F17.9°C 61.0°F16.1°C 89% Calm Calm -- 29.93 in1013.5 mb - 0.00 in0.0 mm 0.00 in0.0 mm
05:40 AM 64.3°F17.9°C 61.0°F16.1°C 89% Calm Calm -- 29.94 in1013.9 mb - 0.00 in0.0 mm 0.00 in0.0 mm
05:45 AM 64.2°F17.9°C 60.9°F16.1°C 89% Calm Calm -- 29.94 in1013.9 mb - 0.00 in0.0 mm 0.00 in0.0 mm
05:50 AM 64.2°F17.9°C 60.9°F16.1°C 89% Calm Calm -- 29.94 in1013.9 mb - 0.00 in0.0 mm 0.00 in0.0 mm
05:55 AM 64.2°F17.9°C 60.9°F16.1°C 89% Calm Calm -- 29.94 in1013.9 mb - 0.00 in0.0 mm 0.00 in0.0 mm
06:00 AM 64.1°F17.8°C 60.8°F16.0°C 89% Calm Calm -- 29.94 in1013.9 mb - 0.00 in0.0 mm 0.00 in0.0 mm
06:10 AM 64.1°F17.8°C 60.8°F16.0°C 89% Calm Calm -- 29.94 in1013.9 mb - 0.00 in0.0 mm 0.00 in0.0 mm
06:15 AM 64.1°F17.8°C 60.8°F16.0°C 89% Calm Calm -- 29.94 in1013.9 mb - 0.00 in0.0 mm 0.00 in0.0 mm
06:20 AM 64.1°F17.8°C 60.8°F16.0°C 89% Calm Calm -- 29.94 in1013.9 mb - 0.00 in0.0 mm 0.00 in0.0 mm
06:25 AM 64.2°F17.9°C 60.9°F16.1°C 89% Calm Calm -- 29.94 in1013.9 mb - 0.00 in0.0 mm 0.00 in0.0 mm
06:30 AM 64.2°F17.9°C 60.9°F16.1°C 89% Calm Calm -- 29.95 in1014.2 mb - 0.00 in0.0 mm 0.00 in0.0 mm
06:35 AM 64.2°F17.9°C 60.9°F16.1°C 89% Calm Calm -- 29.95 in1014.2 mb - 0.00 in0.0 mm 0.00 in0.0 mm
06:40 AM 64.2°F17.9°C 61.2°F16.2°C 90% Calm Calm -- 29.95 in1014.2 mb - 0.00 in0.0 mm 0.00 in0.0 mm
06:45 AM 64.1°F17.8°C 61.1°F16.2°C 90% Calm Calm -- 29.95 in1014.2 mb - 0.00 in0.0 mm 0.00 in0.0 mm
06:50 AM 64.1°F17.8°C 61.1°F16.2°C 90% Calm Calm -- 29.95 in1014.2 mb - 0.00 in0.0 mm 0.00 in0.0 mm
06:55 AM 64.0°F17.8°C 61.0°F16.1°C 90% Calm Calm -- 29.95 in1014.2 mb - 0.00 in0.0 mm 0.00 in0.0 mm
07:00 AM 63.9°F17.7°C 60.6°F15.9°C 89% Calm Calm -- 29.96 in1014.6 mb - 0.00 in0.0 mm 0.00 in0.0 mm
07:10 AM 63.6°F17.6°C 60.3°F15.7°C 89% Calm Calm -- 29.96 in1014.6 mb - 0.00 in0.0 mm 0.00 in0.0 mm
07:15 AM 63.5°F17.5°C 60.2°F15.7°C 89% Calm Calm -- 29.97 in1014.9 mb - 0.00 in0.0 mm 0.00 in0.0 mm
07:20 AM 63.4°F17.4°C 60.1°F15.6°C 89% Calm Calm -- 29.97 in1014.9 mb - 0.00 in0.0 mm 0.00 in0.0 mm
07:25 AM 63.3°F17.4°C 60.0°F15.6°C 89% Calm Calm -- 29.98 in1015.2 mb - 0.00 in0.0 mm 0.00 in0.0 mm
07:30 AM 63.2°F17.3°C 59.9°F15.5°C 89% Calm Calm -- 29.98 in1015.2 mb - 0.00 in0.0 mm 0.00 in0.0 mm
07:35 AM 63.2°F17.3°C 59.9°F15.5°C 89% Calm Calm -- 29.98 in1015.2 mb - 0.00 in0.0 mm 0.00 in0.0 mm
07:40 AM 63.1°F17.3°C 59.8°F15.4°C 89% Calm Calm -- 29.98 in1015.2 mb - 0.00 in0.0 mm 0.00 in0.0 mm
07:45 AM 63.2°F17.3°C 59.9°F15.5°C 89% Calm Calm -- 29.98 in1015.2 mb - 0.00 in0.0 mm 0.00 in0.0 mm
07:50 AM 63.2°F17.3°C 59.9°F15.5°C 89% Calm Calm -- 29.98 in1015.2 mb - 0.00 in0.0 mm 0.00 in0.0 mm
07:55 AM 63.3°F17.4°C 60.3°F15.7°C 90% Calm Calm -- 29.99 in1015.6 mb - 0.00 in0.0 mm 0.00 in0.0 mm
08:00 AM 63.4°F17.4°C 60.4°F15.8°C 90% Calm Calm -- 29.99 in1015.6 mb - 0.00 in0.0 mm 0.00 in0.0 mm
08:10 AM 63.8°F17.7°C 60.8°F16.0°C 90% Calm Calm -- 29.99 in1015.6 mb - 0.00 in0.0 mm 0.00 in0.0 mm
08:15 AM 64.0°F17.8°C 61.0°F16.1°C 90% Calm Calm -- 29.99 in1015.6 mb - 0.00 in0.0 mm 0.00 in0.0 mm
08:20 AM 64.2°F17.9°C 61.2°F16.2°C 90% Calm Calm -- 29.99 in1015.6 mb - 0.00 in0.0 mm 0.00 in0.0 mm
08:25 AM 64.4°F18.0°C 61.4°F16.3°C 90% Calm Calm -- 29.99 in1015.6 mb - 0.00 in0.0 mm 0.00 in0.0 mm
08:30 AM 64.6°F18.1°C 61.6°F16.4°C 90% Calm Calm -- 29.99 in1015.6 mb - 0.00 in0.0 mm 0.00 in0.0 mm
08:35 AM 64.8°F18.2°C 61.8°F16.6°C 90% Calm Calm -- 29.99 in1015.6 mb - 0.00 in0.0 mm 0.00 in0.0 mm
08:40 AM 65.1°F18.4°C 62.1°F16.7°C 90% Calm Calm -- 29.99 in1015.6 mb - 0.00 in0.0 mm 0.00 in0.0 mm
08:45 AM 65.4°F18.6°C 62.4°F16.9°C 90% Calm Calm -- 30.00 in1015.9 mb - 0.00 in0.0 mm 0.00 in0.0 mm
08:50 AM 65.6°F18.7°C 62.6°F17.0°C 90% Calm Calm -- 30.00 in1015.9 mb - 0.00 in0.0 mm 0.00 in0.0 mm
08:55 AM 65.8°F18.8°C 62.8°F17.1°C 90% Calm Calm -- 30.00 in1015.9 mb - 0.00 in0.0 mm 0.00 in0.0 mm
09:00 AM 66.1°F18.9°C 63.1°F17.3°C 90% Calm Calm -- 30.00 in1015.9 mb - 0.00 in0.0 mm 0.00 in0.0 mm
09:10 AM 66.7°F19.3°C 64.0°F17.8°C 91% Calm Calm -- 30.00 in1015.9 mb - 0.00 in0.0 mm 0.00 in0.0 mm
09:15 AM 67.0°F19.4°C 64.0°F17.8°C 90% Calm Calm -- 30.00 in1015.9 mb - 0.00 in0.0 mm 0.00 in0.0 mm
09:20 AM 67.3°F19.6°C 64.5°F18.1°C 91% Calm Calm -- 30.00 in1015.9 mb - 0.00 in0.0 mm 0.00 in0.0 mm
09:25 AM 67.5°F19.7°C 64.4°F18.0°C 90% Calm Calm -- 30.01 in1016.3 mb - 0.00 in0.0 mm 0.00 in0.0 mm
09:30 AM 67.7°F19.8°C 64.6°F18.1°C 90% Calm Calm -- 30.01 in1016.3 mb - 0.00 in0.0 mm 0.00 in0.0 mm
09:35 AM 67.9°F19.9°C 64.9°F18.3°C 90% Calm Calm -- 30.01 in1016.3 mb - 0.00 in0.0 mm 0.00 in0.0 mm
09:40 AM 68.1°F20.1°C 65.0°F18.3°C 90% Calm Calm -- 30.00 in1015.9 mb - 0.00 in0.0 mm 0.00 in0.0 mm
09:45 AM 68.3°F20.2°C 65.3°F18.5°C 90% Calm Calm -- 30.00 in1015.9 mb - 0.00 in0.0 mm 0.00 in0.0 mm
09:50 AM 68.5°F20.3°C 65.4°F18.6°C 90% Calm Calm -- 30.00 in1015.9 mb - 0.00 in0.0 mm 0.00 in0.0 mm
09:55 AM 68.7°F20.4°C 65.7°F18.7°C 90% Calm Calm -- 30.00 in1015.9 mb - 0.00 in0.0 mm 0.00 in0.0 mm
10:00 AM 69.0°F20.6°C 65.6°F18.7°C 89% Calm Calm -- 30.00 in1015.9 mb - 0.00 in0.0 mm 0.00 in0.0 mm
10:10 AM 69.7°F20.9°C 66.0°F18.9°C 88% Calm Calm -- 30.00 in1015.9 mb - 0.00 in0.0 mm 0.00 in0.0 mm
10:15 AM 70.0°F21.1°C 66.0°F18.9°C 87% Calm Calm -- 30.00 in1015.9 mb - 0.00 in0.0 mm 0.00 in0.0 mm
10:20 AM 70.4°F21.3°C 66.0°F18.9°C 86% Calm Calm -- 30.00 in1015.9 mb - 0.00 in0.0 mm 0.00 in0.0 mm
10:25 AM 70.7°F21.5°C 66.0°F18.9°C 85% Calm Calm -- 30.00 in1015.9 mb - 0.00 in0.0 mm 0.00 in0.0 mm
10:30 AM 71.1°F21.7°C 66.0°F18.9°C 84% Calm Calm -- 30.00 in1015.9 mb - 0.00 in0.0 mm 0.00 in0.0 mm
10:35 AM 71.5°F21.9°C 66.1°F18.9°C 83% Calm Calm -- 30.00 in1015.9 mb - 0.00 in0.0 mm 0.00 in0.0 mm
10:40 AM 72.1°F22.3°C 66.3°F19.1°C 82% Calm Calm -- 30.00 in1015.9 mb - 0.00 in0.0 mm 0.00 in0.0 mm
10:45 AM 72.6°F22.6°C 66.4°F19.1°C 81% Calm Calm -- 30.00 in1015.9 mb - 0.00 in0.0 mm 0.00 in0.0 mm
10:50 AM 73.1°F22.8°C 66.2°F19.0°C 79% Calm Calm -- 29.99 in1015.6 mb - 0.00 in0.0 mm 0.00 in0.0 mm
10:55 AM 73.8°F23.2°C 66.5°F19.2°C 78% Calm Calm -- 29.99 in1015.6 mb - 0.00 in0.0 mm 0.00 in0.0 mm
11:00 AM 74.3°F23.5°C 66.6°F19.2°C 77% Calm Calm -- 29.99 in1015.6 mb - 0.00 in0.0 mm 0.00 in0.0 mm
11:10 AM 75.2°F24.0°C 66.7°F19.3°C 75% Calm Calm -- 29.98 in1015.2 mb - 0.00 in0.0 mm 0.00 in0.0 mm
11:15 AM 75.8°F24.3°C 67.3°F19.6°C 75% Calm Calm -- 29.98 in1015.2 mb - 0.00 in0.0 mm 0.00 in0.0 mm
11:20 AM 76.3°F24.6°C 67.4°F19.7°C 74% Calm Calm -- 29.98 in1015.2 mb - 0.00 in0.0 mm 0.00 in0.0 mm
11:25 AM 76.7°F24.8°C 67.0°F19.4°C 72% Calm Calm -- 29.98 in1015.2 mb - 0.00 in0.0 mm 0.00 in0.0 mm
11:30 AM 77.2°F25.1°C 67.5°F19.7°C 72% Calm Calm -- 29.98 in1015.2 mb - 0.00 in0.0 mm 0.00 in0.0 mm
11:35 AM 77.6°F25.3°C 66.6°F19.2°C 69% Calm Calm -- 29.98 in1015.2 mb - 0.00 in0.0 mm 0.00 in0.0 mm
11:40 AM 78.1°F25.6°C 67.9°F19.9°C 71% Calm Calm -- 29.98 in1015.2 mb - 0.00 in0.0 mm 0.00 in0.0 mm
11:45 AM 78.5°F25.8°C 66.6°F19.2°C 67% Calm Calm -- 29.98 in1015.2 mb - 0.00 in0.0 mm 0.00 in0.0 mm
11:50 AM 79.0°F26.1°C 66.2°F19.0°C 65% Calm Calm -- 29.98 in1015.2 mb - 0.00 in0.0 mm 0.00 in0.0 mm
11:55 AM 79.5°F26.4°C 67.1°F19.5°C 66% Calm Calm -- 29.98 in1015.2 mb - 0.00 in0.0 mm 0.00 in0.0 mm
12:00 PM 79.5°F26.4°C 67.6°F19.8°C 67% Calm Calm -- 29.98 in1015.2 mb - 0.00 in0.0 mm 0.00 in0.0 mm
12:10 PM 79.0°F26.1°C 66.2°F19.0°C 65% Calm Calm -- 29.98 in1015.2 mb - 0.00 in0.0 mm 0.00 in0.0 mm
12:15 PM 78.7°F25.9°C 66.4°F19.1°C 66% Calm Calm -- 29.98 in1015.2 mb - 0.00 in0.0 mm 0.00 in0.0 mm
12:20 PM 78.7°F25.9°C 66.8°F19.3°C 67% Calm Calm -- 29.98 in1015.2 mb - 0.00 in0.0 mm 0.00 in0.0 mm
12:25 PM 78.5°F25.8°C 66.2°F19.0°C 66% Calm Calm -- 29.98 in1015.2 mb - 0.00 in0.0 mm 0.00 in0.0 mm
12:30 PM 78.4°F25.8°C 65.7°F18.7°C 65% Calm Calm -- 29.98 in1015.2 mb - 0.00 in0.0 mm 0.00 in0.0 mm
12:35 PM 78.4°F25.8°C 67.4°F19.7°C 69% Calm Calm -- 29.98 in1015.2 mb - 0.00 in0.0 mm 0.00 in0.0 mm
12:40 PM 78.2°F25.7°C 67.2°F19.6°C 69% Calm Calm -- 29.98 in1015.2 mb - 0.00 in0.0 mm 0.00 in0.0 mm
12:45 PM 78.1°F25.6°C 67.1°F19.5°C 69% Calm Calm -- 29.98 in1015.2 mb - 0.00 in0.0 mm 0.00 in0.0 mm
12:50 PM 78.0°F25.6°C 67.0°F19.4°C 69% Calm Calm -- 29.98 in1015.2 mb - 0.00 in0.0 mm 0.00 in0.0 mm
12:55 PM 78.0°F25.6°C 67.0°F19.4°C 69% Calm Calm -- 29.98 in1015.2 mb - 0.00 in0.0 mm 0.00 in0.0 mm
01:00 PM 78.0°F25.6°C 66.6°F19.2°C 68% Calm Calm -- 29.98 in1015.2 mb - 0.00 in0.0 mm 0.00 in0.0 mm
01:10 PM 78.2°F25.7°C 66.8°F19.3°C 68% Calm Calm -- 29.97 in1014.9 mb - 0.00 in0.0 mm 0.00 in0.0 mm
01:15 PM 78.3°F25.7°C 66.4°F19.1°C 67% Calm Calm -- 29.97 in1014.9 mb - 0.00 in0.0 mm 0.00 in0.0 mm
01:20 PM 78.4°F25.8°C 66.6°F19.2°C 67% Calm Calm -- 29.97 in1014.9 mb - 0.00 in0.0 mm 0.00 in0.0 mm
01:25 PM 78.7°F25.9°C 67.7°F19.8°C 69% Calm Calm -- 29.96 in1014.6 mb - 0.00 in0.0 mm 0.00 in0.0 mm
01:30 PM 79.5°F26.4°C 67.2°F19.6°C 66% Calm Calm -- 29.96 in1014.6 mb - 0.00 in0.0 mm 0.00 in0.0 mm
01:35 PM 80.0°F26.7°C 66.8°F19.3°C 64% Calm Calm -- 29.96 in1014.6 mb - 0.00 in0.0 mm 0.00 in0.0 mm
01:40 PM 80.5°F26.9°C 66.7°F19.3°C 63% Calm Calm -- 29.96 in1014.6 mb - 0.00 in0.0 mm 0.00 in0.0 mm
01:45 PM 80.5°F26.9°C 66.3°F19.1°C 62% Calm Calm -- 29.96 in1014.6 mb - 0.00 in0.0 mm 0.00 in0.0 mm
01:50 PM 80.8°F27.1°C 66.6°F19.2°C 62% Calm Calm -- 29.96 in1014.6 mb - 0.00 in0.0 mm 0.00 in0.0 mm
01:55 PM 81.1°F27.3°C 65.9°F18.8°C 60% Calm Calm -- 29.96 in1014.6 mb - 0.00 in0.0 mm 0.00 in0.0 mm
02:00 PM 81.0°F27.2°C 66.3°F19.1°C 61% Calm Calm -- 29.96 in1014.6 mb - 0.00 in0.0 mm 0.00 in0.0 mm
02:10 PM 80.8°F27.1°C 66.6°F19.2°C 62% Calm Calm -- 29.95 in1014.2 mb - 0.00 in0.0 mm 0.00 in0.0 mm
02:15 PM 80.6°F27.0°C 66.4°F19.1°C 62% Calm Calm -- 29.95 in1014.2 mb - 0.00 in0.0 mm 0.00 in0.0 mm
02:20 PM 80.2°F26.8°C 66.0°F18.9°C 62% Calm Calm -- 29.95 in1014.2 mb - 0.00 in0.0 mm 0.00 in0.0 mm
02:25 PM 80.0°F26.7°C 66.7°F19.3°C 64% Calm Calm -- 29.95 in1014.2 mb - 0.00 in0.0 mm 0.00 in0.0 mm
02:30 PM 79.9°F26.6°C 66.2°F19.0°C 63% Calm Calm -- 29.95 in1014.2 mb - 0.00 in0.0 mm 0.00 in0.0 mm
02:35 PM 80.1°F26.7°C 66.4°F19.1°C 63% Calm Calm -- 29.95 in1014.2 mb - 0.00 in0.0 mm 0.00 in0.0 mm
02:40 PM 80.2°F26.8°C 66.0°F18.9°C 62% Calm Calm -- 29.95 in1014.2 mb - 0.00 in0.0 mm 0.00 in0.0 mm
02:45 PM 80.8°F27.1°C 66.1°F18.9°C 61% Calm Calm -- 29.94 in1013.9 mb - 0.00 in0.0 mm 0.00 in0.0 mm
02:50 PM 81.6°F27.6°C 65.8°F18.8°C 59% Calm Calm -- 29.94 in1013.9 mb - 0.00 in0.0 mm 0.00 in0.0 mm
02:55 PM 82.4°F28.0°C 66.1°F18.9°C 58% Calm Calm -- 29.94 in1013.9 mb - 0.00 in0.0 mm 0.00 in0.0 mm
03:00 PM 83.1°F28.4°C 67.3°F19.6°C 59% Calm Calm -- 29.94 in1013.9 mb - 0.00 in0.0 mm 0.00 in0.0 mm
03:10 PM 83.7°F28.7°C 65.8°F18.8°C 55% Calm Calm -- 29.94 in1013.9 mb - 0.00 in0.0 mm 0.00 in0.0 mm
03:15 PM 84.0°F28.9°C 66.1°F18.9°C 55% Calm Calm -- 29.93 in1013.5 mb - 0.00 in0.0 mm 0.00 in0.0 mm
03:20 PM 84.2°F29.0°C 65.7°F18.7°C 54% Calm Calm -- 29.93 in1013.5 mb - 0.00 in0.0 mm 0.00 in0.0 mm
03:25 PM 84.3°F29.1°C 65.9°F18.8°C 54% Calm Calm -- 29.93 in1013.5 mb - 0.00 in0.0 mm 0.00 in0.0 mm
03:30 PM 84.5°F29.2°C 66.6°F19.2°C 55% Calm Calm -- 29.93 in1013.5 mb - 0.00 in0.0 mm 0.00 in0.0 mm
03:35 PM 84.5°F29.2°C 66.0°F18.9°C 54% Calm Calm -- 29.93 in1013.5 mb - 0.00 in0.0 mm 0.00 in0.0 mm
03:40 PM 84.1°F28.9°C 65.7°F18.7°C 54% Calm Calm -- 29.93 in1013.5 mb - 0.00 in0.0 mm 0.00 in0.0 mm
03:45 PM 83.8°F28.8°C 65.9°F18.8°C 55% Calm Calm -- 29.93 in1013.5 mb - 0.00 in0.0 mm 0.00 in0.0 mm
03:50 PM 83.4°F28.6°C 65.6°F18.7°C 55% Calm Calm -- 29.93 in1013.5 mb - 0.00 in0.0 mm 0.00 in0.0 mm
03:55 PM 83.2°F28.4°C 66.4°F19.1°C 57% Calm Calm -- 29.93 in1013.5 mb - 0.00 in0.0 mm 0.00 in0.0 mm
04:00 PM 83.2°F28.4°C 65.9°F18.8°C 56% Calm Calm -- 29.93 in1013.5 mb - 0.00 in0.0 mm 0.00 in0.0 mm
04:10 PM 83.3°F28.5°C 66.0°F18.9°C 56% Calm Calm -- 29.93 in1013.5 mb - 0.00 in0.0 mm 0.00 in0.0 mm
04:15 PM 83.1°F28.4°C 65.2°F18.4°C 55% Calm Calm -- 29.93 in1013.5 mb - 0.00 in0.0 mm 0.00 in0.0 mm
04:20 PM 82.7°F28.2°C 64.4°F18.0°C 54% Calm Calm -- 29.93 in1013.5 mb - 0.00 in0.0 mm 0.00 in0.0 mm
04:25 PM 82.3°F27.9°C 65.0°F18.3°C 56% Calm Calm -- 29.93 in1013.5 mb - 0.00 in0.0 mm 0.00 in0.0 mm
04:30 PM 82.1°F27.8°C 64.3°F17.9°C 55% Calm Calm -- 29.93 in1013.5 mb - 0.00 in0.0 mm 0.00 in0.0 mm
04:35 PM 82.2°F27.9°C 65.9°F18.8°C 58% Calm Calm -- 29.93 in1013.5 mb - 0.00 in0.0 mm 0.00 in0.0 mm
04:40 PM 82.2°F27.9°C 65.4°F18.6°C 57% Calm Calm -- 29.93 in1013.5 mb - 0.00 in0.0 mm 0.00 in0.0 mm
04:45 PM 82.2°F27.9°C 64.9°F18.3°C 56% Calm Calm -- 29.93 in1013.5 mb - 0.00 in0.0 mm 0.00 in0.0 mm
04:50 PM 82.3°F27.9°C 65.5°F18.6°C 57% Calm Calm -- 29.93 in1013.5 mb - 0.00 in0.0 mm 0.00 in0.0 mm
04:55 PM 82.2°F27.9°C 65.0°F18.3°C 56% Calm Calm -- 29.93 in1013.5 mb - 0.00 in0.0 mm 0.00 in0.0 mm
05:00 PM 82.1°F27.8°C 64.9°F18.3°C 56% Calm Calm -- 29.93 in1013.5 mb - 0.00 in0.0 mm 0.00 in0.0 mm
05:10 PM 82.1°F27.8°C 64.8°F18.2°C 56% Calm Calm -- 29.93 in1013.5 mb - 0.00 in0.0 mm 0.00 in0.0 mm
05:15 PM 82.1°F27.8°C 65.4°F18.6°C 57% Calm Calm -- 29.93 in1013.5 mb - 0.00 in0.0 mm 0.00 in0.0 mm
05:20 PM 82.1°F27.8°C 64.3°F17.9°C 55% Calm Calm -- 29.93 in1013.5 mb - 0.00 in0.0 mm 0.00 in0.0 mm
05:25 PM 82.1°F27.8°C 65.4°F18.6°C 57% Calm Calm -- 29.93 in1013.5 mb - 0.00 in0.0 mm 0.00 in0.0 mm
05:30 PM 82.1°F27.8°C 65.9°F18.8°C 58% Calm Calm -- 29.93 in1013.5 mb - 0.00 in0.0 mm 0.00 in0.0 mm
05:35 PM 82.0°F27.8°C 65.3°F18.5°C 57% Calm Calm -- 29.93 in1013.5 mb - 0.00 in0.0 mm 0.00 in0.0 mm
05:40 PM 81.9°F27.7°C 66.6°F19.2°C 60% Calm Calm -- 29.93 in1013.5 mb - 0.00 in0.0 mm 0.00 in0.0 mm
05:45 PM 81.5°F27.5°C 67.3°F19.6°C 62% Calm Calm -- 29.93 in1013.5 mb - 0.00 in0.0 mm 0.00 in0.0 mm
05:50 PM 81.1°F27.3°C 67.3°F19.6°C 63% Calm Calm -- 29.94 in1013.9 mb - 0.00 in0.0 mm 0.00 in0.0 mm
05:55 PM 80.7°F27.1°C 66.9°F19.4°C 63% Calm Calm -- 29.94 in1013.9 mb - 0.00 in0.0 mm 0.00 in0.0 mm
06:00 PM 80.3°F26.8°C 67.0°F19.4°C 64% Calm Calm -- 29.94 in1013.9 mb - 0.00 in0.0 mm 0.00 in0.0 mm
06:10 PM 79.6°F26.4°C 66.8°F19.3°C 65% Calm Calm -- 29.94 in1013.9 mb - 0.00 in0.0 mm 0.00 in0.0 mm
06:15 PM 79.4°F26.3°C 66.6°F19.2°C 65% Calm Calm -- 29.95 in1014.2 mb - 0.00 in0.0 mm 0.00 in0.0 mm
06:20 PM 79.1°F26.2°C 66.8°F19.3°C 66% Calm Calm -- 29.95 in1014.2 mb - 0.00 in0.0 mm 0.00 in0.0 mm
06:25 PM 78.9°F26.1°C 66.1°F18.9°C 65% Calm Calm -- 29.95 in1014.2 mb - 0.00 in0.0 mm 0.00 in0.0 mm
06:30 PM 78.8°F26.0°C 66.0°F18.9°C 65% Calm Calm -- 29.95 in1014.2 mb - 0.00 in0.0 mm 0.00 in0.0 mm
06:35 PM 78.7°F25.9°C 65.9°F18.8°C 65% Calm Calm -- 29.95 in1014.2 mb - 0.00 in0.0 mm 0.00 in0.0 mm
06:40 PM 78.7°F25.9°C 66.8°F19.3°C 67% Calm Calm -- 29.95 in1014.2 mb - 0.00 in0.0 mm 0.00 in0.0 mm
06:45 PM 78.5°F25.8°C 67.1°F19.5°C 68% Calm Calm -- 29.95 in1014.2 mb - 0.00 in0.0 mm 0.00 in0.0 mm
06:50 PM 78.4°F25.8°C 67.0°F19.4°C 68% Calm Calm -- 29.95 in1014.2 mb - 0.00 in0.0 mm 0.00 in0.0 mm
06:55 PM 78.2°F25.7°C 66.8°F19.3°C 68% Calm Calm -- 29.95 in1014.2 mb - 0.00 in0.0 mm 0.00 in0.0 mm
07:00 PM 78.0°F25.6°C 66.6°F19.2°C 68% Calm Calm -- 29.95 in1014.2 mb - 0.00 in0.0 mm 0.00 in0.0 mm
07:10 PM 77.3°F25.2°C 66.4°F19.1°C 69% Calm Calm -- 29.95 in1014.2 mb - 0.00 in0.0 mm 0.00 in0.0 mm
07:15 PM 77.0°F25.0°C 66.9°F19.4°C 71% Calm Calm -- 29.95 in1014.2 mb - 0.00 in0.0 mm 0.00 in0.0 mm
07:20 PM 76.7°F24.8°C 67.0°F19.4°C 72% Calm Calm -- 29.95 in1014.2 mb - 0.00 in0.0 mm 0.00 in0.0 mm
07:25 PM 76.4°F24.7°C 67.1°F19.5°C 73% Calm Calm -- 29.95 in1014.2 mb - 0.00 in0.0 mm 0.00 in0.0 mm
07:30 PM 76.0°F24.4°C 67.1°F19.5°C 74% Calm Calm -- 29.95 in1014.2 mb - 0.00 in0.0 mm 0.00 in0.0 mm
07:35 PM 75.7°F24.3°C 67.2°F19.6°C 75% Calm Calm -- 29.96 in1014.6 mb - 0.00 in0.0 mm 0.00 in0.0 mm
07:40 PM 75.4°F24.1°C 67.3°F19.6°C 76% Calm Calm -- 29.96 in1014.6 mb - 0.00 in0.0 mm 0.00 in0.0 mm
07:45 PM 74.9°F23.8°C 66.8°F19.3°C 76% Calm Calm -- 29.97 in1014.9 mb - 0.00 in0.0 mm 0.00 in0.0 mm
07:50 PM 74.5°F23.6°C 66.5°F19.2°C 76% Calm Calm -- 29.97 in1014.9 mb - 0.00 in0.0 mm 0.00 in0.0 mm
07:55 PM 74.3°F23.5°C 66.2°F19.0°C 76% Calm Calm -- 29.97 in1014.9 mb - 0.00 in0.0 mm 0.00 in0.0 mm
08:00 PM 74.0°F23.3°C 66.4°F19.1°C 77% Calm Calm -- 29.97 in1014.9 mb - 0.00 in0.0 mm 0.00 in0.0 mm
08:10 PM 73.6°F23.1°C 65.9°F18.8°C 77% Calm Calm -- 29.97 in1014.9 mb - 0.00 in0.0 mm 0.00 in0.0 mm
08:15 PM 73.4°F23.0°C 65.7°F18.7°C 77% Calm Calm -- 29.97 in1014.9 mb - 0.00 in0.0 mm 0.00 in0.0 mm
08:20 PM 73.2°F22.9°C 65.9°F18.8°C 78% Calm Calm -- 29.97 in1014.9 mb - 0.00 in0.0 mm 0.00 in0.0 mm
08:25 PM 73.0°F22.8°C 65.7°F18.7°C 78% Calm Calm -- 29.97 in1014.9 mb - 0.00 in0.0 mm 0.00 in0.0 mm
08:30 PM 72.8°F22.7°C 65.9°F18.8°C 79% Calm Calm -- 29.97 in1014.9 mb - 0.00 in0.0 mm 0.00 in0.0 mm
08:35 PM 72.5°F22.5°C 65.6°F18.7°C 79% Calm Calm -- 29.97 in1014.9 mb - 0.00 in0.0 mm 0.00 in0.0 mm
08:40 PM 72.2°F22.3°C 65.3°F18.5°C 79% Calm Calm -- 29.98 in1015.2 mb - 0.00 in0.0 mm 0.00 in0.0 mm
08:45 PM 72.1°F22.3°C 65.6°F18.7°C 80% Calm Calm -- 29.97 in1014.9 mb - 0.00 in0.0 mm 0.00 in0.0 mm
08:50 PM 71.9°F22.2°C 65.4°F18.6°C 80% Calm Calm -- 29.98 in1015.2 mb - 0.00 in0.0 mm 0.00 in0.0 mm
08:55 PM 71.6°F22.0°C 65.1°F18.4°C 80% Calm Calm -- 29.98 in1015.2 mb - 0.00 in0.0 mm 0.00 in0.0 mm
09:00 PM 71.3°F21.8°C 64.8°F18.2°C 80% Calm Calm -- 29.98 in1015.2 mb - 0.00 in0.0 mm 0.00 in0.0 mm
09:10 PM 70.8°F21.6°C 64.6°F18.1°C 81% Calm Calm -- 29.98 in1015.2 mb - 0.00 in0.0 mm 0.00 in0.0 mm
09:15 PM 70.6°F21.4°C 64.5°F18.1°C 81% Calm Calm -- 29.98 in1015.2 mb - 0.00 in0.0 mm 0.00 in0.0 mm
09:20 PM 70.4°F21.3°C 64.3°F17.9°C 81% Calm Calm -- 29.98 in1015.2 mb - 0.00 in0.0 mm 0.00 in0.0 mm
09:25 PM 70.3°F21.3°C 64.2°F17.9°C 81% Calm Calm -- 29.99 in1015.6 mb - 0.00 in0.0 mm 0.00 in0.0 mm
09:30 PM 70.2°F21.2°C 64.1°F17.8°C 81% Calm Calm -- 29.99 in1015.6 mb - 0.00 in0.0 mm 0.00 in0.0 mm
09:35 PM 70.1°F21.2°C 64.3°F17.9°C 82% Calm Calm -- 29.99 in1015.6 mb - 0.00 in0.0 mm 0.00 in0.0 mm
09:40 PM 69.9°F21.1°C 64.2°F17.9°C 82% Calm Calm -- 29.99 in1015.6 mb - 0.00 in0.0 mm 0.00 in0.0 mm
09:45 PM 69.8°F21.0°C 64.4°F18.0°C 83% Calm Calm -- 29.99 in1015.6 mb - 0.00 in0.0 mm 0.00 in0.0 mm
09:50 PM 69.7°F20.9°C 64.3°F17.9°C 83% Calm Calm -- 29.99 in1015.6 mb - 0.00 in0.0 mm 0.00 in0.0 mm
09:55 PM 69.5°F20.8°C 64.1°F17.8°C 83% Calm Calm -- 29.99 in1015.6 mb - 0.00 in0.0 mm 0.00 in0.0 mm
10:00 PM 69.3°F20.7°C 63.9°F17.7°C 83% Calm Calm -- 29.99 in1015.6 mb - 0.00 in0.0 mm 0.00 in0.0 mm
10:10 PM 69.0°F20.6°C 63.9°F17.7°C 84% Calm Calm -- 29.98 in1015.2 mb - 0.00 in0.0 mm 0.00 in0.0 mm
10:15 PM 68.7°F20.4°C 63.7°F17.6°C 84% Calm Calm -- 29.98 in1015.2 mb - 0.00 in0.0 mm 0.00 in0.0 mm
10:20 PM 68.5°F20.3°C 63.5°F17.5°C 84% Calm Calm -- 29.98 in1015.2 mb - 0.00 in0.0 mm 0.00 in0.0 mm
10:25 PM 68.3°F20.2°C 63.6°F17.6°C 85% Calm Calm -- 29.99 in1015.6 mb - 0.00 in0.0 mm 0.00 in0.0 mm
10:30 PM 68.0°F20.0°C 63.3°F17.4°C 85% Calm Calm -- 29.99 in1015.6 mb - 0.00 in0.0 mm 0.00 in0.0 mm
10:35 PM 67.9°F19.9°C 63.2°F17.3°C 85% Calm Calm -- 29.99 in1015.6 mb - 0.00 in0.0 mm 0.00 in0.0 mm
10:40 PM 67.7°F19.8°C 63.0°F17.2°C 85% Calm Calm -- 29.99 in1015.6 mb - 0.00 in0.0 mm 0.00 in0.0 mm
10:50 PM 67.5°F19.7°C 62.8°F17.1°C 85% Calm Calm -- 29.99 in1015.6 mb - 0.00 in0.0 mm 0.00 in0.0 mm
10:55 PM 67.3°F19.6°C 62.6°F17.0°C 85% Calm Calm -- 29.99 in1015.6 mb - 0.00 in0.0 mm 0.00 in0.0 mm
11:00 PM 67.2°F19.6°C 62.5°F16.9°C 85% Calm Calm -- 29.99 in1015.6 mb - 0.00 in0.0 mm 0.00 in0.0 mm
11:10 PM 66.9°F19.4°C 62.6°F17.0°C 86% Calm Calm -- 29.99 in1015.6 mb - 0.00 in0.0 mm 0.00 in0.0 mm
11:15 PM 66.8°F19.3°C 62.5°F16.9°C 86% Calm Calm -- 29.99 in1015.6 mb - 0.00 in0.0 mm 0.00 in0.0 mm
11:20 PM 66.7°F19.3°C 62.4°F16.9°C 86% Calm Calm -- 29.99 in1015.6 mb - 0.00 in0.0 mm 0.00 in0.0 mm
11:25 PM 66.6°F19.2°C 62.3°F16.8°C 86% Calm Calm -- 29.98 in1015.2 mb - 0.00 in0.0 mm 0.00 in0.0 mm
11:30 PM 66.4°F19.1°C 62.1°F16.7°C 86% Calm Calm -- 29.98 in1015.2 mb - 0.00 in0.0 mm 0.00 in0.0 mm
11:35 PM 66.3°F19.1°C 62.0°F16.7°C 86% Calm Calm -- 29.98 in1015.2 mb - 0.00 in0.0 mm 0.00 in0.0 mm
11:40 PM 66.1°F18.9°C 62.2°F16.8°C 87% Calm Calm -- 29.98 in1015.2 mb - 0.00 in0.0 mm 0.00 in0.0 mm
11:45 PM 66.0°F18.9°C 61.7°F16.5°C 86% Calm Calm -- 29.98 in1015.2 mb - 0.00 in0.0 mm 0.00 in0.0 mm
11:50 PM 65.9°F18.8°C 61.9°F16.6°C 87% Calm Calm -- 29.98 in1015.2 mb - 0.00 in0.0 mm 0.00 in0.0 mm
11:55 PM 65.8°F18.8°C 61.8°F16.6°C 87% Calm Calm -- 29.98 in1015.2 mb - 0.00 in0.0 mm 0.00 in0.0 mm